sensor_id;sensor_type;location;lat;lon;timestamp;P1;P2;P0
77516;PMS7003;68414;53.946;27.634;2023-04-30T00:00:39;12.850000;11.666667;8.300000
77516;PMS7003;68414;53.946;27.634;2023-04-30T00:01:39;11.700000;10.600000;8.033334
77516;PMS7003;68414;53.946;27.634;2023-04-30T00:02:39;13.866667;13.316667;9.266666
77516;PMS7003;68414;53.946;27.634;2023-04-30T00:03:39;12.400000;12.400000;8.633333
77516;PMS7003;68414;53.946;27.634;2023-04-30T00:04:39;13.016666;12.250000;8.716666
77516;PMS7003;68414;53.946;27.634;2023-04-30T00:05:39;9.700000;9.700000;7.216667
77516;PMS7003;68414;53.946;27.634;2023-04-30T00:06:39;12.550000;11.733334;8.316667
77516;PMS7003;68414;53.946;27.634;2023-04-30T00:07:39;13.533334;12.100000;9.066667
77516;PMS7003;68414;53.946;27.634;2023-04-30T00:08:39;12.583333;11.233334;8.333333
77516;PMS7003;68414;53.946;27.634;2023-04-30T00:09:40;10.566667;10.566667;7.950000
77516;PMS7003;68414;53.946;27.634;2023-04-30T00:10:39;11.666667;10.600000;7.366667
77516;PMS7003;68414;53.946;27.634;2023-04-30T00:11:39;12.416667;12.233334;8.016666
77516;PMS7003;68414;53.946;27.634;2023-04-30T00:12:39;12.766666;12.433333;8.550000
77516;PMS7003;68414;53.946;27.634;2023-04-30T00:13:39;9.933333;9.116667;6.683333
77516;PMS7003;68414;53.946;27.634;2023-04-30T00:14:39;9.883333;9.083333;6.666667
77516;PMS7003;68414;53.946;27.634;2023-04-30T00:15:39;10.166667;9.316667;6.783333
77516;PMS7003;68414;53.946;27.634;2023-04-30T00:16:39;10.316667;9.316667;7.100000
77516;PMS7003;68414;53.946;27.634;2023-04-30T00:17:39;8.883333;8.266666;6.200000
77516;PMS7003;68414;53.946;27.634;2023-04-30T00:18:39;9.383333;8.800000;6.650000
77516;PMS7003;68414;53.946;27.634;2023-04-30T00:19:40;10.350000;10.100000;7.366667
77516;PMS7003;68414;53.946;27.634;2023-04-30T00:20:39;10.366667;9.916667;6.766667
77516;PMS7003;68414;53.946;27.634;2023-04-30T00:21:39;9.966666;9.650000;6.933333
77516;PMS7003;68414;53.946;27.634;2023-04-30T00:22:39;12.550000;10.950000;7.616667
77516;PMS7003;68414;53.946;27.634;2023-04-30T00:23:39;10.300000;10.050000;7.166667
77516;PMS7003;68414;53.946;27.634;2023-04-30T00:24:39;10.916667;9.966666;7.366667
77516;PMS7003;68414;53.946;27.634;2023-04-30T00:25:39;10.000000;9.650000;7.300000
77516;PMS7003;68414;53.946;27.634;2023-04-30T00:26:39;10.116667;9.416667;6.950000
77516;PMS7003;68414;53.946;27.634;2023-04-30T00:27:39;10.216666;10.133333;7.383333
77516;PMS7003;68414;53.946;27.634;2023-04-30T00:28:39;10.316667;9.600000;7.266667
77516;PMS7003;68414;53.946;27.634;2023-04-30T00:29:39;11.150000;10.733334;7.850000
77516;PMS7003;68414;53.946;27.634;2023-04-30T00:30:39;10.883333;9.066667;7.100000
77516;PMS7003;68414;53.946;27.634;2023-04-30T00:31:40;9.383333;8.733334;6.800000
77516;PMS7003;68414;53.946;27.634;2023-04-30T00:32:39;9.233334;7.850000;5.616667
77516;PMS7003;68414;53.946;27.634;2023-04-30T00:33:39;10.400000;9.450000;7.516667
77516;PMS7003;68414;53.946;27.634;2023-04-30T00:34:39;10.233334;8.383333;7.316667
77516;PMS7003;68414;53.946;27.634;2023-04-30T00:35:40;11.400000;9.966666;7.300000
77516;PMS7003;68414;53.946;27.634;2023-04-30T00:36:39;9.066667;8.400000;5.800000
77516;PMS7003;68414;53.946;27.634;2023-04-30T00:37:39;10.066667;9.200000;7.066667
77516;PMS7003;68414;53.946;27.634;2023-04-30T00:38:39;11.633333;11.066667;7.616667
77516;PMS7003;68414;53.946;27.634;2023-04-30T00:39:39;10.233334;9.766666;6.716667
77516;PMS7003;68414;53.946;27.634;2023-04-30T00:40:40;9.050000;8.633333;6.466667
77516;PMS7003;68414;53.946;27.634;2023-04-30T00:41:40;9.583333;9.016666;6.400000
77516;PMS7003;68414;53.946;27.634;2023-04-30T00:42:39;8.516666;8.050000;6.200000
77516;PMS7003;68414;53.946;27.634;2023-04-30T00:43:39;10.083333;9.350000;7.350000
77516;PMS7003;68414;53.946;27.634;2023-04-30T00:44:39;8.350000;7.700000;6.100000
77516;PMS7003;68414;53.946;27.634;2023-04-30T00:45:39;7.700000;7.683333;5.850000
77516;PMS7003;68414;53.946;27.634;2023-04-30T00:46:39;10.183333;8.800000;6.283333
77516;PMS7003;68414;53.946;27.634;2023-04-30T00:47:40;7.933333;7.816667;5.283333
77516;PMS7003;68414;53.946;27.634;2023-04-30T00:48:39;9.750000;8.833333;6.283333
77516;PMS7003;68414;53.946;27.634;2023-04-30T00:49:39;9.733334;9.416667;6.550000
77516;PMS7003;68414;53.946;27.634;2023-04-30T00:50:40;9.300000;8.250000;5.800000
77516;PMS7003;68414;53.946;27.634;2023-04-30T00:51:40;7.933333;7.316667;5.433333
77516;PMS7003;68414;53.946;27.634;2023-04-30T00:52:39;8.816667;8.116667;5.583333
77516;PMS7003;68414;53.946;27.634;2023-04-30T00:53:39;8.483334;8.000000;5.800000
77516;PMS7003;68414;53.946;27.634;2023-04-30T00:54:39;9.250000;8.866667;6.350000
77516;PMS7003;68414;53.946;27.634;2023-04-30T00:55:40;9.266666;8.500000;6.566667
77516;PMS7003;68414;53.946;27.634;2023-04-30T00:56:40;7.883333;7.633333;6.116667
77516;PMS7003;68414;53.946;27.634;2023-04-30T00:57:39;7.000000;7.000000;5.433333
77516;PMS7003;68414;53.946;27.634;2023-04-30T00:58:40;8.050000;8.050000;6.050000
77516;PMS7003;68414;53.946;27.634;2023-04-30T00:59:40;8.300000;8.300000;6.000000
77516;PMS7003;68414;53.946;27.634;2023-04-30T01:00:40;7.900000;7.900000;5.883333
77516;PMS7003;68414;53.946;27.634;2023-04-30T01:01:41;8.783334;8.350000;6.116667
77516;PMS7003;68414;53.946;27.634;2023-04-30T01:02:40;7.683333;7.383333;5.633333
77516;PMS7003;68414;53.946;27.634;2023-04-30T01:03:41;9.533334;9.533334;6.600000
77516;PMS7003;68414;53.946;27.634;2023-04-30T01:04:42;10.683333;9.450000;6.733333
77516;PMS7003;68414;53.946;27.634;2023-04-30T01:05:39;15.766666;14.933333;10.583333
77516;PMS7003;68414;53.946;27.634;2023-04-30T01:06:39;10.883333;10.133333;7.683333
77516;PMS7003;68414;53.946;27.634;2023-04-30T01:07:40;10.483334;10.183333;7.633333
77516;PMS7003;68414;53.946;27.634;2023-04-30T01:08:39;10.683333;9.583333;7.500000
77516;PMS7003;68414;53.946;27.634;2023-04-30T01:09:39;9.350000;8.550000;6.283333
77516;PMS7003;68414;53.946;27.634;2023-04-30T01:14:44;8.033334;7.433333;5.200000
77516;PMS7003;68414;53.946;27.634;2023-04-30T01:15:42;7.633333;7.316667;5.650000
77516;PMS7003;68414;53.946;27.634;2023-04-30T01:18:43;9.000000;7.883333;6.116667
77516;PMS7003;68414;53.946;27.634;2023-04-30T01:19:42;8.116667;6.333333;4.966667
77516;PMS7003;68414;53.946;27.634;2023-04-30T01:20:47;7.750000;6.783333;4.950000
77516;PMS7003;68414;53.946;27.634;2023-04-30T01:21:41;7.900000;7.300000;5.616667
77516;PMS7003;68414;53.946;27.634;2023-04-30T01:24:48;8.850000;7.766667;5.883333
77516;PMS7003;68414;53.946;27.634;2023-04-30T01:28:42;7.883333;7.633333;5.550000
77516;PMS7003;68414;53.946;27.634;2023-04-30T01:29:40;9.966666;8.666667;6.200000
77516;PMS7003;68414;53.946;27.634;2023-04-30T01:30:40;7.133333;7.100000;5.083333
77516;PMS7003;68414;53.946;27.634;2023-04-30T01:32:39;8.433333;8.233334;6.116667
77516;PMS7003;68414;53.946;27.634;2023-04-30T01:33:39;7.966667;7.966667;5.650000
77516;PMS7003;68414;53.946;27.634;2023-04-30T01:34:39;7.383333;6.833333;5.316667
77516;PMS7003;68414;53.946;27.634;2023-04-30T01:40:42;7.433333;6.650000;5.566667
77516;PMS7003;68414;53.946;27.634;2023-04-30T01:43:28;8.616667;7.333333;5.400000
77516;PMS7003;68414;53.946;27.634;2023-04-30T01:46:45;8.016666;8.016666;5.933333
77516;PMS7003;68414;53.946;27.634;2023-04-30T01:50:43;9.166667;9.016666;6.433333
77516;PMS7003;68414;53.946;27.634;2023-04-30T01:51:42;8.550000;8.333333;6.216667
77516;PMS7003;68414;53.946;27.634;2023-04-30T01:53:42;7.516667;7.516667;5.733333
77516;PMS7003;68414;53.946;27.634;2023-04-30T01:56:43;7.616667;7.300000;5.416667
77516;PMS7003;68414;53.946;27.634;2023-04-30T01:57:42;9.200000;8.316667;6.450000
77516;PMS7003;68414;53.946;27.634;2023-04-30T01:58:39;7.900000;7.466667;5.700000
77516;PMS7003;68414;53.946;27.634;2023-04-30T01:59:39;8.350000;8.350000;6.683333
77516;PMS7003;68414;53.946;27.634;2023-04-30T02:00:39;8.866667;7.633333;5.883333
77516;PMS7003;68414;53.946;27.634;2023-04-30T02:01:40;7.616667;6.883333;5.266667
77516;PMS7003;68414;53.946;27.634;2023-04-30T02:02:39;8.616667;7.933333;5.733333
77516;PMS7003;68414;53.946;27.634;2023-04-30T02:03:39;7.933333;7.316667;5.683333
77516;PMS7003;68414;53.946;27.634;2023-04-30T02:04:39;9.650000;8.116667;5.950000
77516;PMS7003;68414;53.946;27.634;2023-04-30T02:05:39;7.700000;7.700000;5.766667
77516;PMS7003;68414;53.946;27.634;2023-04-30T02:06:39;7.966667;7.233333;5.266667
77516;PMS7003;68414;53.946;27.634;2023-04-30T02:07:42;7.900000;7.233333;5.416667
77516;PMS7003;68414;53.946;27.634;2023-04-30T02:08:39;7.800000;7.800000;5.533333
77516;PMS7003;68414;53.946;27.634;2023-04-30T02:09:39;7.600000;6.966667;5.683333
77516;PMS7003;68414;53.946;27.634;2023-04-30T02:10:39;8.283334;8.133333;6.833333
77516;PMS7003;68414;53.946;27.634;2023-04-30T02:11:39;8.583333;8.500000;6.150000
77516;PMS7003;68414;53.946;27.634;2023-04-30T02:12:39;9.183333;8.016666;6.333333
77516;PMS7003;68414;53.946;27.634;2023-04-30T02:13:39;8.400000;7.583333;5.666667
77516;PMS7003;68414;53.946;27.634;2023-04-30T02:14:39;8.266666;7.783333;6.200000
77516;PMS7003;68414;53.946;27.634;2023-04-30T02:15:39;9.050000;8.833333;6.216667
77516;PMS7003;68414;53.946;27.634;2023-04-30T02:16:39;8.866667;7.850000;5.566667
77516;PMS7003;68414;53.946;27.634;2023-04-30T02:17:40;7.433333;7.100000;5.383333
77516;PMS7003;68414;53.946;27.634;2023-04-30T02:18:39;7.016667;6.900000;5.050000
77516;PMS7003;68414;53.946;27.634;2023-04-30T02:19:39;8.033334;7.616667;5.633333
77516;PMS7003;68414;53.946;27.634;2023-04-30T02:20:39;8.300000;7.983333;5.933333
77516;PMS7003;68414;53.946;27.634;2023-04-30T02:21:39;7.916667;7.916667;5.416667
77516;PMS7003;68414;53.946;27.634;2023-04-30T02:22:39;9.066667;7.850000;5.750000
77516;PMS7003;68414;53.946;27.634;2023-04-30T02:23:39;6.366667;6.366667;4.850000
77516;PMS7003;68414;53.946;27.634;2023-04-30T02:24:39;7.750000;7.233333;5.500000
77516;PMS7003;68414;53.946;27.634;2023-04-30T02:25:40;8.133333;7.566667;5.700000
77516;PMS7003;68414;53.946;27.634;2023-04-30T02:26:39;7.550000;7.383333;5.616667
77516;PMS7003;68414;53.946;27.634;2023-04-30T02:27:39;8.650000;7.850000;6.100000
77516;PMS7003;68414;53.946;27.634;2023-04-30T02:28:39;8.516666;7.883333;5.600000
77516;PMS7003;68414;53.946;27.634;2023-04-30T02:29:39;8.016666;7.733333;5.416667
77516;PMS7003;68414;53.946;27.634;2023-04-30T02:30:39;8.466666;8.366667;5.900000
77516;PMS7003;68414;53.946;27.634;2023-04-30T02:31:39;9.433333;8.450000;6.450000
77516;PMS7003;68414;53.946;27.634;2023-04-30T02:32:39;7.716667;7.216667;5.066667
77516;PMS7003;68414;53.946;27.634;2023-04-30T02:33:39;7.933333;7.466667;5.683333
77516;PMS7003;68414;53.946;27.634;2023-04-30T02:34:39;10.233334;9.816667;7.583333
77516;PMS7003;68414;53.946;27.634;2023-04-30T02:35:40;10.183333;10.083333;7.583333
77516;PMS7003;68414;53.946;27.634;2023-04-30T02:36:39;9.633333;9.466666;7.200000
77516;PMS7003;68414;53.946;27.634;2023-04-30T02:37:39;8.350000;8.233334;6.216667
77516;PMS7003;68414;53.946;27.634;2023-04-30T02:38:39;8.266666;8.100000;6.416667
77516;PMS7003;68414;53.946;27.634;2023-04-30T02:39:39;7.283333;6.600000;5.166667
77516;PMS7003;68414;53.946;27.634;2023-04-30T02:40:40;8.600000;7.666667;6.033333
77516;PMS7003;68414;53.946;27.634;2023-04-30T02:41:39;9.583333;8.566667;6.216667
77516;PMS7003;68414;53.946;27.634;2023-04-30T02:42:39;9.266666;8.733334;6.283333
77516;PMS7003;68414;53.946;27.634;2023-04-30T02:43:39;8.983334;8.983334;6.100000
77516;PMS7003;68414;53.946;27.634;2023-04-30T02:44:39;10.350000;9.383333;7.116667
77516;PMS7003;68414;53.946;27.634;2023-04-30T02:45:39;9.000000;9.000000;6.416667
77516;PMS7003;68414;53.946;27.634;2023-04-30T02:46:39;9.433333;9.083333;6.416667
77516;PMS7003;68414;53.946;27.634;2023-04-30T02:47:39;8.933333;8.750000;6.366667
77516;PMS7003;68414;53.946;27.634;2023-04-30T02:48:39;9.633333;8.866667;6.833333
77516;PMS7003;68414;53.946;27.634;2023-04-30T02:49:39;9.733334;8.816667;6.483333
77516;PMS7003;68414;53.946;27.634;2023-04-30T02:50:41;8.300000;7.800000;5.666667
77516;PMS7003;68414;53.946;27.634;2023-04-30T02:51:39;9.716666;9.633333;7.400000
77516;PMS7003;68414;53.946;27.634;2023-04-30T02:52:39;10.483334;9.816667;6.966667
77516;PMS7003;68414;53.946;27.634;2023-04-30T02:53:39;10.916667;9.483334;6.466667
77516;PMS7003;68414;53.946;27.634;2023-04-30T02:54:39;9.966666;8.783334;6.650000
77516;PMS7003;68414;53.946;27.634;2023-04-30T02:55:39;9.100000;8.383333;6.233333
77516;PMS7003;68414;53.946;27.634;2023-04-30T02:56:39;10.133333;9.633333;6.983333
77516;PMS7003;68414;53.946;27.634;2023-04-30T02:57:39;8.333333;8.166667;5.883333
77516;PMS7003;68414;53.946;27.634;2023-04-30T02:58:40;9.650000;9.450000;6.666667
77516;PMS7003;68414;53.946;27.634;2023-04-30T02:59:39;9.616667;8.866667;6.216667
77516;PMS7003;68414;53.946;27.634;2023-04-30T03:00:39;9.883333;8.466666;6.850000
77516;PMS7003;68414;53.946;27.634;2023-04-30T03:01:39;8.783334;7.950000;6.300000
77516;PMS7003;68414;53.946;27.634;2023-04-30T03:02:39;9.633333;9.633333;6.800000
77516;PMS7003;68414;53.946;27.634;2023-04-30T03:03:39;9.133333;8.366667;7.033333
77516;PMS7003;68414;53.946;27.634;2023-04-30T03:04:39;10.083333;9.150000;7.150000
77516;PMS7003;68414;53.946;27.634;2023-04-30T03:05:39;9.316667;9.016666;6.916667
77516;PMS7003;68414;53.946;27.634;2023-04-30T03:06:39;7.850000;7.183333;6.150000
77516;PMS7003;68414;53.946;27.634;2023-04-30T03:07:39;9.183333;8.183333;6.000000
77516;PMS7003;68414;53.946;27.634;2023-04-30T03:08:39;9.966666;9.033334;6.416667
77516;PMS7003;68414;53.946;27.634;2023-04-30T03:09:39;8.683333;8.200000;5.983333
77516;PMS7003;68414;53.946;27.634;2023-04-30T03:10:39;9.300000;8.583333;6.066667
77516;PMS7003;68414;53.946;27.634;2023-04-30T03:11:39;9.683333;8.316667;6.383333
77516;PMS7003;68414;53.946;27.634;2023-04-30T03:12:39;8.200000;7.800000;5.366667
77516;PMS7003;68414;53.946;27.634;2023-04-30T03:13:40;9.400000;9.183333;6.483333
77516;PMS7003;68414;53.946;27.634;2023-04-30T03:14:41;9.133333;8.683333;6.550000
77516;PMS7003;68414;53.946;27.634;2023-04-30T03:15:39;8.933333;8.933333;6.416667
77516;PMS7003;68414;53.946;27.634;2023-04-30T03:16:39;8.400000;8.116667;6.100000
77516;PMS7003;68414;53.946;27.634;2023-04-30T03:17:39;9.283334;8.200000;6.433333
77516;PMS7003;68414;53.946;27.634;2023-04-30T03:18:39;10.333333;8.883333;6.216667
77516;PMS7003;68414;53.946;27.634;2023-04-30T03:19:39;7.000000;6.500000;5.300000
77516;PMS7003;68414;53.946;27.634;2023-04-30T03:20:39;7.866667;7.666667;5.883333
77516;PMS7003;68414;53.946;27.634;2023-04-30T03:21:40;9.150000;8.383333;6.150000
77516;PMS7003;68414;53.946;27.634;2023-04-30T03:22:39;8.466666;7.933333;6.116667
77516;PMS7003;68414;53.946;27.634;2023-04-30T03:23:39;9.316667;8.433333;6.433333
77516;PMS7003;68414;53.946;27.634;2023-04-30T03:24:39;11.166667;10.166667;7.366667
77516;PMS7003;68414;53.946;27.634;2023-04-30T03:25:39;9.516666;7.650000;5.950000
77516;PMS7003;68414;53.946;27.634;2023-04-30T03:26:40;9.266666;7.716667;5.616667
77516;PMS7003;68414;53.946;27.634;2023-04-30T03:27:39;9.216666;8.533334;5.883333
77516;PMS7003;68414;53.946;27.634;2023-04-30T03:28:39;9.100000;7.916667;5.766667
77516;PMS7003;68414;53.946;27.634;2023-04-30T03:29:39;8.416667;7.966667;6.216667
77516;PMS7003;68414;53.946;27.634;2023-04-30T03:30:39;8.450000;7.983333;6.166667
77516;PMS7003;68414;53.946;27.634;2023-04-30T03:31:39;10.833333;10.100000;6.800000
77516;PMS7003;68414;53.946;27.634;2023-04-30T03:32:39;9.633333;9.133333;6.483333
77516;PMS7003;68414;53.946;27.634;2023-04-30T03:33:39;9.600000;9.383333;6.983333
77516;PMS7003;68414;53.946;27.634;2023-04-30T03:34:39;7.600000;7.600000;5.533333
77516;PMS7003;68414;53.946;27.634;2023-04-30T03:35:39;7.783333;7.166667;5.566667
77516;PMS7003;68414;53.946;27.634;2023-04-30T03:36:39;8.266666;7.650000;5.883333
77516;PMS7003;68414;53.946;27.634;2023-04-30T03:37:39;8.650000;8.116667;5.716667
77516;PMS7003;68414;53.946;27.634;2023-04-30T03:38:39;9.083333;8.216666;5.550000
77516;PMS7003;68414;53.946;27.634;2023-04-30T03:39:39;8.583333;8.516666;6.216667
77516;PMS7003;68414;53.946;27.634;2023-04-30T03:40:39;8.716666;7.850000;5.750000
77516;PMS7003;68414;53.946;27.634;2023-04-30T03:41:39;10.183333;9.166667;6.333333
77516;PMS7003;68414;53.946;27.634;2023-04-30T03:42:39;7.500000;6.766667;5.200000
77516;PMS7003;68414;53.946;27.634;2023-04-30T03:43:39;7.316667;6.266667;4.850000
77516;PMS7003;68414;53.946;27.634;2023-04-30T03:44:39;8.866667;7.700000;5.933333
77516;PMS7003;68414;53.946;27.634;2023-04-30T03:45:39;9.933333;8.850000;6.650000
77516;PMS7003;68414;53.946;27.634;2023-04-30T03:46:39;9.566667;7.400000;5.933333
77516;PMS7003;68414;53.946;27.634;2023-04-30T03:47:39;7.500000;7.500000;6.033333
77516;PMS7003;68414;53.946;27.634;2023-04-30T03:48:39;9.250000;9.233334;6.583333
77516;PMS7003;68414;53.946;27.634;2023-04-30T03:49:39;8.250000;7.766667;5.933333
77516;PMS7003;68414;53.946;27.634;2023-04-30T03:50:39;7.316667;7.316667;5.333333
77516;PMS7003;68414;53.946;27.634;2023-04-30T03:51:39;8.100000;7.766667;6.033333
77516;PMS7003;68414;53.946;27.634;2023-04-30T03:52:39;7.216667;6.583333;5.300000
77516;PMS7003;68414;53.946;27.634;2023-04-30T03:53:39;8.850000;7.966667;6.200000
77516;PMS7003;68414;53.946;27.634;2023-04-30T03:54:39;9.666667;8.350000;6.416667
77516;PMS7003;68414;53.946;27.634;2023-04-30T03:55:40;7.733333;7.466667;5.483333
77516;PMS7003;68414;53.946;27.634;2023-04-30T03:56:39;8.866667;8.200000;5.750000
77516;PMS7003;68414;53.946;27.634;2023-04-30T03:57:39;7.616667;7.366667;5.500000
77516;PMS7003;68414;53.946;27.634;2023-04-30T03:58:39;8.033334;7.450000;6.283333
77516;PMS7003;68414;53.946;27.634;2023-04-30T03:59:40;8.866667;8.166667;6.716667
77516;PMS7003;68414;53.946;27.634;2023-04-30T04:00:40;8.100000;8.100000;5.616667
77516;PMS7003;68414;53.946;27.634;2023-04-30T04:01:39;8.850000;8.233334;5.600000
77516;PMS7003;68414;53.946;27.634;2023-04-30T04:02:39;9.316667;8.816667;6.166667
77516;PMS7003;68414;53.946;27.634;2023-04-30T04:03:39;10.350000;8.516666;6.116667
77516;PMS7003;68414;53.946;27.634;2023-04-30T04:04:39;8.216666;8.216666;6.350000
77516;PMS7003;68414;53.946;27.634;2023-04-30T04:05:39;8.750000;7.766667;6.133333
77516;PMS7003;68414;53.946;27.634;2023-04-30T04:06:39;8.850000;8.216666;6.783333
77516;PMS7003;68414;53.946;27.634;2023-04-30T04:07:39;9.316667;8.750000;6.700000
77516;PMS7003;68414;53.946;27.634;2023-04-30T04:08:39;7.316667;6.900000;5.666667
77516;PMS7003;68414;53.946;27.634;2023-04-30T04:09:39;7.816667;7.816667;5.816667
77516;PMS7003;68414;53.946;27.634;2023-04-30T04:10:39;8.950000;8.950000;6.483333
77516;PMS7003;68414;53.946;27.634;2023-04-30T04:11:39;9.233334;8.550000;6.900000
77516;PMS7003;68414;53.946;27.634;2023-04-30T04:12:39;8.933333;8.483334;6.666667
77516;PMS7003;68414;53.946;27.634;2023-04-30T04:13:39;10.900000;9.950000;6.783333
77516;PMS7003;68414;53.946;27.634;2023-04-30T04:14:39;9.833333;8.516666;6.516667
77516;PMS7003;68414;53.946;27.634;2023-04-30T04:15:39;9.100000;8.466666;6.583333
77516;PMS7003;68414;53.946;27.634;2023-04-30T04:16:39;11.383333;10.616667;7.483333
77516;PMS7003;68414;53.946;27.634;2023-04-30T04:17:39;9.650000;9.500000;6.583333
77516;PMS7003;68414;53.946;27.634;2023-04-30T04:18:39;11.250000;11.050000;8.133333
77516;PMS7003;68414;53.946;27.634;2023-04-30T04:19:39;10.216666;9.566667;6.633333
77516;PMS7003;68414;53.946;27.634;2023-04-30T04:20:39;11.450000;9.583333;7.683333
77516;PMS7003;68414;53.946;27.634;2023-04-30T04:21:39;9.666667;9.350000;6.883333
77516;PMS7003;68414;53.946;27.634;2023-04-30T04:22:39;9.066667;8.500000;6.033333
77516;PMS7003;68414;53.946;27.634;2023-04-30T04:23:39;10.933333;10.233334;7.250000
77516;PMS7003;68414;53.946;27.634;2023-04-30T04:24:39;10.216666;10.216666;7.550000
77516;PMS7003;68414;53.946;27.634;2023-04-30T04:25:39;9.400000;9.150000;6.600000
77516;PMS7003;68414;53.946;27.634;2023-04-30T04:26:39;8.833333;8.450000;6.783333
77516;PMS7003;68414;53.946;27.634;2023-04-30T04:27:39;10.900000;10.683333;8.083333
77516;PMS7003;68414;53.946;27.634;2023-04-30T04:28:40;11.516666;11.283334;7.866667
77516;PMS7003;68414;53.946;27.634;2023-04-30T04:29:39;9.516666;8.666667;6.033333
77516;PMS7003;68414;53.946;27.634;2023-04-30T04:30:39;11.933333;10.683333;7.550000
77516;PMS7003;68414;53.946;27.634;2023-04-30T04:31:40;9.266666;8.766666;6.116667
77516;PMS7003;68414;53.946;27.634;2023-04-30T04:32:39;9.666667;9.283334;7.116667
77516;PMS7003;68414;53.946;27.634;2023-04-30T04:33:39;10.183333;9.833333;6.866667
77516;PMS7003;68414;53.946;27.634;2023-04-30T04:34:39;10.516666;10.300000;7.516667
77516;PMS7003;68414;53.946;27.634;2023-04-30T04:35:39;11.216666;10.016666;8.083333
77516;PMS7003;68414;53.946;27.634;2023-04-30T04:36:39;10.366667;10.100000;8.566667
77516;PMS7003;68414;53.946;27.634;2023-04-30T04:37:39;10.616667;10.616667;7.266667
77516;PMS7003;68414;53.946;27.634;2023-04-30T04:38:39;9.833333;9.483334;7.116667
77516;PMS7003;68414;53.946;27.634;2023-04-30T04:39:39;10.650000;9.583333;7.116667
77516;PMS7003;68414;53.946;27.634;2023-04-30T04:40:39;11.233334;10.433333;6.933333
77516;PMS7003;68414;53.946;27.634;2023-04-30T04:41:39;9.616667;9.616667;6.700000
77516;PMS7003;68414;53.946;27.634;2023-04-30T04:42:39;10.000000;9.516666;6.583333
77516;PMS7003;68414;53.946;27.634;2023-04-30T04:43:39;10.616667;9.966666;6.700000
77516;PMS7003;68414;53.946;27.634;2023-04-30T04:44:39;8.750000;8.583333;5.900000
77516;PMS7003;68414;53.946;27.634;2023-04-30T04:45:40;10.466666;9.933333;6.450000
77516;PMS7003;68414;53.946;27.634;2023-04-30T04:46:39;9.950000;9.533334;7.033333
77516;PMS7003;68414;53.946;27.634;2023-04-30T04:47:39;11.750000;10.650000;7.333333
77516;PMS7003;68414;53.946;27.634;2023-04-30T04:48:39;10.966666;9.766666;7.466667
77516;PMS7003;68414;53.946;27.634;2023-04-30T04:49:39;11.316667;10.200000;6.533333
77516;PMS7003;68414;53.946;27.634;2023-04-30T04:50:39;10.366667;10.016666;7.666667
77516;PMS7003;68414;53.946;27.634;2023-04-30T04:51:39;10.550000;10.033334;7.066667
77516;PMS7003;68414;53.946;27.634;2023-04-30T04:52:39;10.950000;9.833333;7.083333
77516;PMS7003;68414;53.946;27.634;2023-04-30T04:53:39;11.250000;10.316667;7.450000
77516;PMS7003;68414;53.946;27.634;2023-04-30T04:54:39;11.100000;9.800000;7.350000
77516;PMS7003;68414;53.946;27.634;2023-04-30T04:55:39;9.983334;9.683333;6.933333
77516;PMS7003;68414;53.946;27.634;2023-04-30T04:56:39;11.016666;10.383333;7.316667
77516;PMS7003;68414;53.946;27.634;2023-04-30T04:57:39;10.950000;10.066667;7.616667
77516;PMS7003;68414;53.946;27.634;2023-04-30T04:58:40;8.966666;8.783334;6.683333
77516;PMS7003;68414;53.946;27.634;2023-04-30T04:59:39;10.283334;9.783334;7.116667
77516;PMS7003;68414;53.946;27.634;2023-04-30T05:00:39;11.266666;10.133333;7.866667
77516;PMS7003;68414;53.946;27.634;2023-04-30T05:01:39;9.550000;8.700000;7.300000
77516;PMS7003;68414;53.946;27.634;2023-04-30T05:02:39;10.416667;8.816667;7.433333
77516;PMS7003;68414;53.946;27.634;2023-04-30T05:03:39;11.516666;10.250000;7.816667
77516;PMS7003;68414;53.946;27.634;2023-04-30T05:04:39;10.783334;10.116667;7.300000
77516;PMS7003;68414;53.946;27.634;2023-04-30T05:05:39;9.133333;8.166667;6.783333
77516;PMS7003;68414;53.946;27.634;2023-04-30T05:06:39;12.666667;10.183333;7.366667
77516;PMS7003;68414;53.946;27.634;2023-04-30T05:07:39;11.483334;10.000000;6.650000
77516;PMS7003;68414;53.946;27.634;2023-04-30T05:08:41;10.250000;9.600000;7.100000
77516;PMS7003;68414;53.946;27.634;2023-04-30T05:09:39;9.566667;9.133333;6.716667
77516;PMS7003;68414;53.946;27.634;2023-04-30T05:10:39;11.716666;9.816667;7.166667
77516;PMS7003;68414;53.946;27.634;2023-04-30T05:11:39;10.950000;10.316667;7.466667
77516;PMS7003;68414;53.946;27.634;2023-04-30T05:12:39;9.483334;8.816667;6.483333
77516;PMS7003;68414;53.946;27.634;2023-04-30T05:13:39;9.150000;8.783334;6.233333
77516;PMS7003;68414;53.946;27.634;2023-04-30T05:14:39;9.383333;9.166667;7.400000
77516;PMS7003;68414;53.946;27.634;2023-04-30T05:15:39;12.050000;10.816667;8.333333
77516;PMS7003;68414;53.946;27.634;2023-04-30T05:16:39;11.116667;10.316667;7.283333
77516;PMS7003;68414;53.946;27.634;2023-04-30T05:17:39;10.466666;10.300000;6.550000
77516;PMS7003;68414;53.946;27.634;2023-04-30T05:18:39;9.983334;9.600000;7.200000
77516;PMS7003;68414;53.946;27.634;2023-04-30T05:19:39;10.933333;10.383333;7.100000